createdAt,value
2018-07-31T00:00:10.664Z,100836.00
2018-07-31T00:05:14.753Z,100841.00
2018-07-31T00:10:18.582Z,100835.00
2018-07-31T00:15:22.715Z,100835.00
2018-07-31T00:20:26.768Z,100839.00
2018-07-31T00:25:30.854Z,100834.00
2018-07-31T00:30:34.627Z,100835.00
2018-07-31T00:35:38.469Z,100829.00
2018-07-31T00:40:42.541Z,100834.00
2018-07-31T00:45:46.590Z,100837.00
2018-07-31T00:50:50.699Z,100839.00
2018-07-31T00:55:54.779Z,100835.00
2018-07-31T01:00:58.586Z,100834.00
2018-07-31T01:06:02.662Z,100831.00
2018-07-31T01:11:06.760Z,100826.00
2018-07-31T01:16:10.571Z,100820.00
2018-07-31T01:21:14.643Z,100817.00
2018-07-31T01:26:19.401Z,100808.00
2018-07-31T01:31:23.201Z,100806.00
2018-07-31T01:36:27.257Z,100806.00
2018-07-31T01:41:31.334Z,100811.00
2018-07-31T01:46:35.397Z,100809.00
2018-07-31T01:51:39.209Z,100809.00
2018-07-31T01:56:43.054Z,100803.00
2018-07-31T02:01:47.102Z,100806.00
2018-07-31T02:06:51.156Z,100807.00
2018-07-31T02:11:55.317Z,100817.00
2018-07-31T02:16:59.138Z,100813.00
2018-07-31T02:22:03.188Z,100815.00
2018-07-31T02:27:07.030Z,100822.00
2018-07-31T02:32:11.080Z,100827.00
2018-07-31T02:37:14.885Z,100829.00
2018-07-31T02:42:18.946Z,100828.00
2018-07-31T02:47:24.030Z,100827.00
2018-07-31T02:52:28.120Z,100826.00
2018-07-31T02:57:32.178Z,100826.00
2018-07-31T03:02:35.984Z,100824.00
2018-07-31T03:07:40.044Z,100820.00
2018-07-31T03:12:44.107Z,100826.00
2018-07-31T03:17:48.167Z,100824.00
2018-07-31T03:22:51.978Z,100832.00
2018-07-31T03:27:56.050Z,100831.00
2018-07-31T03:32:59.849Z,100837.00
2018-07-31T03:38:04.266Z,100842.00
2018-07-31T03:43:08.094Z,100842.00
2018-07-31T03:48:12.152Z,100833.00
2018-07-31T03:53:16.213Z,100836.00
2018-07-31T03:58:20.045Z,100837.00
2018-07-31T04:03:23.945Z,100844.00
2018-07-31T04:08:28.047Z,100858.00
2018-07-31T04:13:31.875Z,100850.00
2018-07-31T04:18:35.945Z,100850.00
2018-07-31T04:23:40.068Z,100853.00
2018-07-31T04:28:44.147Z,100855.00
2018-07-31T04:33:48.221Z,100855.00
2018-07-31T04:38:52.366Z,100857.00
2018-07-31T04:43:56.224Z,100858.00
2018-07-31T04:49:00.270Z,100855.00
2018-07-31T04:54:04.158Z,100856.00
2018-07-31T04:59:08.250Z,100855.00
2018-07-31T05:04:12.300Z,100857.00
2018-07-31T05:09:16.096Z,100859.00
2018-07-31T05:14:19.901Z,100860.00
2018-07-31T05:19:24.027Z,100863.00
2018-07-31T05:24:28.123Z,100871.00
2018-07-31T05:29:32.169Z,100871.00
2018-07-31T05:34:35.992Z,100868.00
2018-07-31T05:39:40.259Z,100874.00
2018-07-31T05:44:44.139Z,100885.00
2018-07-31T05:49:48.016Z,100884.00
2018-07-31T05:54:52.147Z,100894.00
2018-07-31T05:59:56.207Z,100894.00
2018-07-31T06:05:00.256Z,100900.00
2018-07-31T06:10:04.754Z,100902.00
2018-07-31T06:15:08.808Z,100914.00
2018-07-31T06:20:14.374Z,100916.00
2018-07-31T06:25:18.431Z,100917.00
2018-07-31T06:30:22.513Z,100921.00
2018-07-31T06:35:26.321Z,100922.00
2018-07-31T06:40:30.383Z,100926.00
2018-07-31T06:45:34.469Z,100937.00
2018-07-31T06:50:38.607Z,100940.00
2018-07-31T06:55:42.672Z,100937.00
2018-07-31T07:00:46.837Z,100945.00
2018-07-31T07:05:51.270Z,100947.00
2018-07-31T07:10:55.421Z,100938.00
2018-07-31T07:15:59.517Z,100934.00
2018-07-31T07:21:03.566Z,100951.00
2018-07-31T07:26:07.639Z,100950.00
2018-07-31T07:31:11.451Z,100947.00
2018-07-31T07:36:15.533Z,100951.00
2018-07-31T07:41:20.180Z,100949.00
2018-07-31T07:46:24.272Z,100943.00
2018-07-31T07:51:28.347Z,100938.00
2018-07-31T07:56:32.399Z,100929.00
2018-07-31T08:01:36.202Z,100929.00
2018-07-31T08:06:40.253Z,100933.00
2018-07-31T08:11:51.103Z,100936.00
2018-07-31T08:16:55.214Z,100930.00
2018-07-31T08:21:59.282Z,100926.00
2018-07-31T08:27:03.345Z,100938.00
2018-07-31T08:32:07.410Z,100947.00
2018-07-31T08:37:11.512Z,100948.00
2018-07-31T08:42:15.661Z,100937.00
2018-07-31T08:47:19.761Z,100948.00
2018-07-31T08:52:23.885Z,100956.00
2018-07-31T08:57:28.038Z,100942.00
2018-07-31T09:02:31.876Z,100963.00
2018-07-31T09:07:36.159Z,100949.00
2018-07-31T09:12:40.001Z,100945.00
2018-07-31T09:17:43.834Z,100949.00
2018-07-31T09:22:47.862Z,100966.00
2018-07-31T09:27:51.897Z,100971.00
2018-07-31T09:33:01.014Z,100947.00
2018-07-31T09:38:05.078Z,100962.00
2018-07-31T09:43:09.127Z,100964.00
2018-07-31T09:48:14.053Z,100963.00
2018-07-31T09:53:18.126Z,100953.00
2018-07-31T09:58:21.930Z,100954.00
2018-07-31T10:03:26.026Z,100954.00
2018-07-31T10:08:30.195Z,100931.00
2018-07-31T10:13:34.245Z,100942.00
2018-07-31T10:18:38.050Z,100936.00
2018-07-31T10:23:42.083Z,100935.00
2018-07-31T10:28:46.114Z,100921.00
2018-07-31T10:33:50.141Z,100932.00
2018-07-31T10:38:54.241Z,100936.00
2018-07-31T10:43:58.336Z,100946.00
2018-07-31T10:49:02.377Z,100942.00
2018-07-31T10:54:06.487Z,100938.00
2018-07-31T10:59:10.575Z,100941.00
2018-07-31T11:04:14.656Z,100942.00
2018-07-31T11:09:18.711Z,100948.00
2018-07-31T11:14:22.521Z,100953.00
2018-07-31T11:19:26.597Z,100951.00
2018-07-31T11:24:30.722Z,100942.00
2018-07-31T11:29:34.813Z,100939.00
2018-07-31T11:34:39.113Z,100937.00
2018-07-31T11:39:43.168Z,100933.00
2018-07-31T11:44:47.260Z,100925.00
2018-07-31T11:49:51.132Z,100933.00
2018-07-31T11:54:54.938Z,100930.00
2018-07-31T11:59:58.757Z,100932.00
2018-07-31T12:05:02.600Z,100930.00
2018-07-31T12:10:06.801Z,100935.00
2018-07-31T12:15:10.870Z,100936.00
2018-07-31T12:20:14.945Z,100938.00
2018-07-31T12:25:19.019Z,100937.00
2018-07-31T12:30:23.053Z,100937.00
2018-07-31T12:35:27.300Z,100932.00
2018-07-31T12:40:31.371Z,100940.00
2018-07-31T12:45:35.453Z,100943.00
2018-07-31T12:50:39.529Z,100943.00
2018-07-31T12:55:43.599Z,100941.00
2018-07-31T13:00:47.654Z,100935.00
2018-07-31T13:05:51.715Z,100934.00
2018-07-31T13:10:56.035Z,100932.00
2018-07-31T13:15:59.841Z,100930.00
2018-07-31T13:21:03.903Z,100929.00
2018-07-31T13:26:08.177Z,100928.00
2018-07-31T13:31:12.258Z,100933.00
2018-07-31T13:36:16.330Z,100925.00
2018-07-31T13:41:20.425Z,100920.00
2018-07-31T13:46:24.583Z,100918.00
2018-07-31T13:51:28.726Z,100911.00
2018-07-31T13:56:32.598Z,100918.00
2018-07-31T14:01:36.693Z,100917.00
2018-07-31T14:06:40.735Z,100917.00
2018-07-31T14:11:44.812Z,100909.00
2018-07-31T14:16:48.873Z,100917.00
2018-07-31T14:21:52.949Z,100927.00
2018-07-31T14:26:56.763Z,100933.00
2018-07-31T14:32:00.843Z,100946.00
2018-07-31T14:37:04.920Z,100944.00
2018-07-31T14:42:09.351Z,100940.00
2018-07-31T14:47:14.032Z,100934.00
2018-07-31T14:52:18.161Z,100937.00
2018-07-31T14:57:22.261Z,100950.00
2018-07-31T15:02:26.156Z,100951.00
2018-07-31T15:07:30.008Z,100954.00
2018-07-31T15:12:34.040Z,100951.00
2018-07-31T15:17:37.855Z,100940.00
2018-07-31T15:22:42.055Z,100950.00
2018-07-31T15:27:46.119Z,100946.00
2018-07-31T15:32:49.943Z,100942.00
2018-07-31T15:37:53.845Z,100945.00
2018-07-31T15:42:57.944Z,100955.00
2018-07-31T15:48:01.781Z,100962.00
2018-07-31T15:53:05.895Z,100968.00
2018-07-31T15:58:09.720Z,100967.00
2018-07-31T16:03:13.879Z,100970.00
2018-07-31T16:08:17.672Z,100971.00
2018-07-31T16:13:21.517Z,100972.00
2018-07-31T16:18:25.574Z,100967.00
2018-07-31T16:23:29.857Z,100966.00
2018-07-31T16:28:33.957Z,100968.00
2018-07-31T16:33:37.941Z,100970.00
2018-07-31T16:38:41.771Z,100970.00
2018-07-31T16:43:45.841Z,100974.00
2018-07-31T16:48:49.889Z,100982.00
2018-07-31T16:53:53.941Z,100984.00
2018-07-31T16:58:57.998Z,100987.00
2018-07-31T17:04:02.054Z,100984.00
2018-07-31T17:09:06.922Z,100985.00
2018-07-31T17:14:10.774Z,100993.00
2018-07-31T17:19:14.941Z,101000.00
2018-07-31T17:24:18.833Z,100999.00
2018-07-31T17:29:22.995Z,101002.00
2018-07-31T17:34:26.833Z,100997.00
2018-07-31T17:39:30.636Z,101014.00
2018-07-31T17:44:34.587Z,101018.00
2018-07-31T17:49:38.601Z,101020.00
2018-07-31T17:54:42.418Z,101027.00
2018-07-31T17:59:46.471Z,101030.00
2018-07-31T18:04:50.531Z,101030.00
2018-07-31T18:09:54.617Z,101029.00
2018-07-31T18:14:59.387Z,101039.00
2018-07-31T18:20:03.453Z,101038.00
2018-07-31T18:25:07.633Z,101041.00
2018-07-31T18:30:11.463Z,101037.00
2018-07-31T18:35:15.295Z,101054.00
2018-07-31T18:40:19.146Z,101051.00
2018-07-31T18:45:24.046Z,101057.00
2018-07-31T18:50:28.167Z,101065.00
2018-07-31T18:55:32.415Z,101063.00
2018-07-31T19:00:36.238Z,101061.00
2018-07-31T19:05:40.157Z,101072.00
2018-07-31T19:10:44.244Z,101072.00
2018-07-31T19:15:48.375Z,101072.00
2018-07-31T19:20:52.201Z,101077.00
2018-07-31T19:25:56.285Z,101085.00
2018-07-31T19:31:00.120Z,101087.00
2018-07-31T19:36:04.237Z,101092.00
2018-07-31T19:41:08.281Z,101099.00
2018-07-31T19:46:12.389Z,101109.00
2018-07-31T19:51:16.531Z,101118.00
2018-07-31T19:56:21.098Z,101114.00
2018-07-31T20:01:25.165Z,101122.00
2018-07-31T20:06:29.226Z,101130.00
2018-07-31T20:11:33.032Z,101135.00
2018-07-31T20:16:37.099Z,101140.00
2018-07-31T20:21:41.006Z,101148.00
2018-07-31T20:26:45.052Z,101168.00
2018-07-31T20:31:48.968Z,101164.00
2018-07-31T20:36:52.851Z,101175.00
2018-07-31T20:41:56.939Z,101178.00
2018-07-31T20:47:01.054Z,101184.00
2018-07-31T20:52:04.874Z,101191.00
2018-07-31T20:57:08.697Z,101200.00
2018-07-31T21:02:12.768Z,101210.00
2018-07-31T21:07:16.660Z,101204.00
2018-07-31T21:12:20.468Z,101204.00
2018-07-31T21:17:24.539Z,101202.00
2018-07-31T21:22:28.466Z,101206.00
2018-07-31T21:27:32.526Z,101207.00
2018-07-31T21:32:36.732Z,101216.00
2018-07-31T21:37:40.790Z,101210.00
2018-07-31T21:42:44.893Z,101211.00
2018-07-31T21:47:49.038Z,101215.00
2018-07-31T21:52:53.105Z,101216.00
2018-07-31T21:57:57.467Z,101217.00
2018-07-31T22:03:01.874Z,101219.00
2018-07-31T22:08:05.951Z,101220.00
2018-07-31T22:13:10.063Z,101228.00
2018-07-31T22:18:14.113Z,101224.00
2018-07-31T22:23:18.317Z,101238.00
2018-07-31T22:28:22.165Z,101246.00
2018-07-31T22:33:26.267Z,101260.00
2018-07-31T22:38:30.305Z,101263.00
2018-07-31T22:43:34.453Z,101259.00
2018-07-31T22:48:38.454Z,101264.00
2018-07-31T22:53:42.522Z,101266.00
2018-07-31T22:58:46.597Z,101264.00
2018-07-31T23:03:50.419Z,101269.00
2018-07-31T23:08:54.510Z,101266.00
2018-07-31T23:13:58.595Z,101264.00
2018-07-31T23:19:02.610Z,101268.00
2018-07-31T23:24:06.674Z,101279.00
2018-07-31T23:29:10.767Z,101270.00
2018-07-31T23:34:14.829Z,101273.00
2018-07-31T23:39:18.648Z,101258.00
2018-07-31T23:44:22.724Z,101266.00
2018-07-31T23:49:27.793Z,101271.00
2018-07-31T23:54:31.869Z,101274.00
2018-07-31T23:59:35.933Z,101274.00
